Time;durP1;ratioP1;P1;durP2;ratioP2;P2;SDS_P1;SDS_P2;PMS_P1;PMS_P2;Temp;Humidity;BMP_temperature;BMP_pressure;BME280_temperature;BME280_humidity;BME280_pressure;Samples;Min_cycle;Max_cycle;Signal;HPM_P1;HPM_P2
2023/01/25 00:00:28;;;;;;;7.37;5.00;;;;;;;-0.18;100.00;103105.69;4939544;28;20047;-85
2023/01/25 00:02:55;;;;;;;9.93;5.90;;;;;;;-0.19;100.00;103111.69;4971195;28;20055;-84
2023/01/25 00:05:21;;;;;;;6.47;4.33;;;;;;;-0.08;100.00;103105.47;4959813;28;20048;-86
2023/01/25 00:07:48;;;;;;;8.80;5.10;;;;;;;-0.22;100.00;103103.72;4904659;28;1017235;-84
2023/01/25 00:10:14;;;;;;;7.90;4.93;;;;;;;-0.20;100.00;103107.28;4968171;28;20101;-84
2023/01/25 00:12:41;;;;;;;8.67;4.83;;;;;;;-0.14;100.00;103105.09;4955770;28;20043;-84
2023/01/25 00:15:08;;;;;;;7.97;5.20;;;;;;;-0.20;100.00;103107.28;5000487;28;20043;-84
2023/01/25 00:17:35;;;;;;;8.20;4.93;;;;;;;-0.24;100.00;103111.41;4990987;28;20038;-84
2023/01/25 00:20:02;;;;;;;7.93;4.77;;;;;;;-0.19;100.00;103112.59;4958834;28;20088;-85
2023/01/25 00:22:29;;;;;;;7.83;5.20;;;;;;;-0.15;100.00;103098.09;4958687;28;20038;-84
2023/01/25 00:24:56;;;;;;;9.93;4.90;;;;;;;-0.25;100.00;103088.84;4963929;28;20038;-85
2023/01/25 00:27:22;;;;;;;8.73;5.00;;;;;;;-0.24;100.00;103088.03;4955373;28;20117;-84
2023/01/25 00:29:49;;;;;;;7.60;5.10;;;;;;;-0.11;100.00;103085.38;4955350;28;20400;-83
2023/01/25 00:32:20;;;;;;;7.33;5.03;;;;;;;-0.23;100.00;103079.44;4940069;28;20057;-84
2023/01/25 00:34:50;;;;;;;8.13;4.60;;;;;;;-0.33;100.00;103077.06;4955441;28;20050;-84
2023/01/25 00:37:17;;;;;;;6.97;4.53;;;;;;;-0.30;100.00;103074.66;4970184;28;20112;-84
2023/01/25 00:39:43;;;;;;;7.03;4.60;;;;;;;-0.33;100.00;103066.69;4971044;28;20392;-84
2023/01/25 00:42:11;;;;;;;6.13;3.90;;;;;;;-0.29;100.00;103068.66;4954892;28;20117;-83
2023/01/25 00:44:38;;;;;;;8.27;5.10;;;;;;;-0.35;100.00;103071.75;4950778;28;20100;-84
2023/01/25 00:47:09;;;;;;;7.30;5.00;;;;;;;-0.39;100.00;103071.50;4974578;28;20506;-85
2023/01/25 00:49:37;;;;;;;8.30;4.87;;;;;;;-0.37;100.00;103069.88;4958671;28;20045;-85
2023/01/25 00:52:04;;;;;;;7.20;5.33;;;;;;;-0.38;100.00;103073.28;4957619;28;20042;-85
2023/01/25 00:54:31;;;;;;;9.17;5.53;;;;;;;-0.36;100.00;103066.47;4973795;28;20046;-86
2023/01/25 00:56:57;;;;;;;7.83;5.07;;;;;;;-0.38;100.00;103070.69;4957856;28;20061;-84
2023/01/25 00:59:24;;;;;;;9.07;5.40;;;;;;;-0.39;100.00;103062.00;4974048;28;20093;-84
2023/01/25 01:01:52;;;;;;;9.73;5.40;;;;;;;-0.38;100.00;103068.97;4966393;28;20125;-85
2023/01/25 01:04:19;;;;;;;9.17;6.00;;;;;;;-0.35;100.00;103061.38;4970480;28;20039;-85
2023/01/25 01:06:46;;;;;;;9.30;5.83;;;;;;;-0.25;100.00;103059.34;4940077;28;20034;-86
2023/01/25 01:09:16;;;;;;;9.37;5.00;;;;;;;-0.30;100.00;103059.06;4969182;28;20100;-85
2023/01/25 01:11:43;;;;;;;11.17;5.77;;;;;;;-0.34;100.00;103055.41;4957908;28;20053;-84
2023/01/25 01:14:10;;;;;;;8.23;5.10;;;;;;;-0.36;100.00;103050.88;4957717;28;20479;-85
2023/01/25 01:16:37;;;;;;;8.13;4.93;;;;;;;-0.32;100.00;103063.28;4957470;28;20046;-85
2023/01/25 01:19:04;;;;;;;10.07;5.87;;;;;;;-0.27;100.00;103059.25;4956254;28;20070;-85
2023/01/25 01:21:31;;;;;;;9.17;5.70;;;;;;;-0.20;100.00;103056.22;4973517;28;20042;-84
2023/01/25 01:23:57;;;;;;;10.13;5.93;;;;;;;-0.28;100.00;103060.06;4973485;28;20041;-84
2023/01/25 01:26:24;;;;;;;9.17;5.60;;;;;;;-0.24;100.00;103055.97;4970879;28;20039;-84
2023/01/25 01:28:51;;;;;;;11.13;5.70;;;;;;;-0.30;100.00;103054.78;4957572;28;20046;-84
2023/01/25 01:31:20;;;;;;;11.87;6.33;;;;;;;-0.26;100.00;103047.16;4973738;28;20042;-84
2023/01/25 01:33:51;;;;;;;11.00;5.93;;;;;;;-0.25;100.00;103047.28;4970039;28;20519;-84
2023/01/25 01:36:20;;;;;;;11.30;5.67;;;;;;;-0.16;100.00;103049.53;4961063;28;20609;-84
2023/01/25 01:38:46;;;;;;;10.17;5.97;;;;;;;-0.26;100.00;103042.84;4976588;28;20042;-84
2023/01/25 01:41:14;;;;;;;8.87;5.87;;;;;;;-0.30;100.00;103038.28;4976886;28;20049;-85
2023/01/25 01:43:41;;;;;;;9.67;5.33;;;;;;;-0.27;100.00;103033.28;4977426;28;20121;-84
2023/01/25 01:46:14;;;;;;;8.13;5.33;;;;;;;-0.29;100.00;103038.38;4976938;28;20046;-86
2023/01/25 01:48:54;;;;;;;9.87;5.30;;;;;;;-0.26;100.00;103034.16;4979416;28;20034;-85
2023/01/25 01:51:41;;;;;;;9.87;5.73;;;;;;;-0.12;100.00;103035.91;4966051;28;20101;-84
2023/01/25 01:54:15;;;;;;;10.87;5.73;;;;;;;-0.11;100.00;103032.50;4978964;28;20046;-84
2023/01/25 01:56:45;;;;;;;11.00;6.30;;;;;;;-0.14;100.00;103030.63;5001921;28;20066;-84
2023/01/25 01:59:11;;;;;;;11.13;6.17;;;;;;;-0.19;100.00;103039.84;4976860;28;20057;-84
2023/01/25 02:01:38;;;;;;;11.27;6.67;;;;;;;-0.23;100.00;103037.88;4957768;28;20500;-84
2023/01/25 02:04:07;;;;;;;13.03;5.60;;;;;;;-0.25;100.00;103033.38;4961195;28;20101;-84
2023/01/25 02:06:46;;;;;;;9.97;5.83;;;;;;;-0.24;100.00;103030.00;4960768;28;20121;-84
2023/01/25 02:09:15;;;;;;;10.93;6.27;;;;;;;-0.20;100.00;103032.84;5053944;23;20050;-79
2023/01/25 02:11:42;;;;;;;12.70;6.80;;;;;;;-0.11;100.00;103019.53;4984066;28;20046;-79
2023/01/25 02:14:09;;;;;;;9.93;6.87;;;;;;;-0.15;100.00;103017.56;4969224;28;20134;-80
2023/01/25 02:16:36;;;;;;;11.23;6.00;;;;;;;-0.28;100.00;103019.38;4989283;28;20046;-79
2023/01/25 02:19:03;;;;;;;12.43;6.00;;;;;;;-0.22;100.00;103011.09;5004653;28;20046;-79
2023/01/25 02:21:37;;;;;;;10.50;5.60;;;;;;;-0.25;100.00;103012.59;4986523;28;20096;-79
2023/01/25 02:24:23;;;;;;;12.13;6.35;;;;;;;-0.23;100.00;103026.59;4970955;28;20050;-80
2023/01/25 02:26:50;;;;;;;9.23;5.23;;;;;;;-0.26;100.00;103016.00;5003803;28;20638;-80
2023/01/25 02:29:18;;;;;;;9.60;5.80;;;;;;;-0.13;100.00;103013.34;5004646;28;20064;-80
2023/01/25 02:31:46;;;;;;;11.77;5.87;;;;;;;0.14;100.00;103011.50;4973751;28;20050;-79
2023/01/25 02:34:13;;;;;;;11.07;5.87;;;;;;;0.04;100.00;103010.06;5023863;28;20030;-80
2023/01/25 02:36:39;;;;;;;10.60;5.80;;;;;;;-0.02;100.00;103013.19;4989957;28;20057;-80
2023/01/25 02:39:08;;;;;;;12.27;6.03;;;;;;;-0.05;100.00;103014.72;5022388;28;20410;-79
2023/01/25 02:41:37;;;;;;;8.30;5.37;;;;;;;0.02;100.00;103008.19;5009473;28;20042;-80
2023/01/25 02:44:06;;;;;;;9.67;5.60;;;;;;;-0.14;100.00;103008.97;4993594;28;20053;-80
2023/01/25 02:46:35;;;;;;;12.27;6.23;;;;;;;-0.13;100.00;103009.03;4977721;28;20045;-80
2023/01/25 02:49:03;;;;;;;13.43;6.13;;;;;;;-0.19;100.00;103003.47;4994883;28;20034;-78
2023/01/25 02:51:32;;;;;;;10.83;5.70;;;;;;;-0.20;100.00;103006.88;5026933;28;20119;-80
2023/01/25 02:54:00;;;;;;;9.37;5.47;;;;;;;-0.17;100.00;102996.69;5009973;28;20060;-80
2023/01/25 02:56:26;;;;;;;12.37;6.57;;;;;;;-0.14;100.00;103001.16;4993727;28;20042;-80
2023/01/25 02:58:53;;;;;;;11.03;5.77;;;;;;;-0.14;100.00;102999.47;4994342;28;20042;-80
2023/01/25 03:01:20;;;;;;;9.93;6.40;;;;;;;-0.21;100.00;102999.00;5009712;28;20077;-80
2023/01/25 03:03:46;;;;;;;12.57;6.40;;;;;;;-0.22;100.00;102992.00;4990876;28;20121;-80
2023/01/25 03:06:13;;;;;;;9.67;6.10;;;;;;;-0.20;100.00;102998.19;5007203;28;20053;-79
2023/01/25 03:08:40;;;;;;;11.93;5.93;;;;;;;-0.15;100.00;102994.19;5000605;28;20057;-79
2023/01/25 03:11:07;;;;;;;14.80;6.83;;;;;;;-0.08;100.00;102991.16;5010381;28;20045;-79
2023/01/25 03:13:34;;;;;;;10.00;5.90;;;;;;;-0.10;100.00;102987.53;5009749;28;20046;-81
2023/01/25 03:16:07;;;;;;;11.40;5.70;;;;;;;-0.13;100.00;102982.16;5009542;28;20046;-80
2023/01/25 03:18:33;;;;;;;9.93;6.03;;;;;;;-0.12;100.00;102990.06;4992575;28;20065;-80
2023/01/25 03:21:08;;;;;;;12.57;7.03;;;;;;;-0.18;100.00;102988.78;4992631;28;20038;-80
2023/01/25 03:23:35;;;;;;;11.47;6.40;;;;;;;-0.21;100.00;102983.41;5009653;28;20045;-80
2023/01/25 03:26:07;;;;;;;10.10;5.30;;;;;;;-0.13;100.00;102984.78;5027445;28;20038;-80
2023/01/25 03:28:36;;;;;;;12.70;6.33;;;;;;;-0.03;100.00;102984.50;5006580;28;20092;-80
2023/01/25 03:31:04;;;;;;;13.00;6.03;;;;;;;-0.12;100.00;102979.66;5006758;28;20465;-80
2023/01/25 03:33:30;;;;;;;8.77;5.17;;;;;;;-0.20;100.00;102978.28;5006404;28;20042;-80
2023/01/25 03:35:57;;;;;;;9.73;5.83;;;;;;;-0.16;100.00;102964.72;4973770;28;20046;-80
2023/01/25 03:38:25;;;;;;;11.33;6.03;;;;;;;-0.18;100.00;102970.59;5006987;28;20518;-81
2023/01/25 03:40:51;;;;;;;11.10;6.03;;;;;;;-0.13;100.00;102962.28;5021548;28;20527;-80
2023/01/25 03:43:18;;;;;;;10.07;6.00;;;;;;;-0.06;100.00;102947.97;5003274;28;20499;-80
2023/01/25 03:45:45;;;;;;;10.80;5.53;;;;;;;-0.17;100.00;102951.59;5002376;28;20050;-80
2023/01/25 03:48:12;;;;;;;10.77;5.67;;;;;;;-0.20;100.00;102948.81;4986660;28;20042;-80
2023/01/25 03:50:38;;;;;;;9.93;5.43;;;;;;;0.06;100.00;102937.38;4983581;28;20038;-79
2023/01/25 03:53:09;;;;;;;10.67;5.63;;;;;;;0.04;100.00;102926.00;5004445;28;20042;-80
2023/01/25 03:55:35;;;;;;;11.27;5.97;;;;;;;-0.07;100.00;102918.47;5016095;28;20508;-80
2023/01/25 03:58:02;;;;;;;10.83;5.00;;;;;;;-0.06;100.00;102914.19;5005193;28;20112;-80
2023/01/25 04:00:28;;;;;;;9.07;5.30;;;;;;;-0.13;100.00;102904.22;4989046;28;20502;-79
2023/01/25 04:02:55;;;;;;;9.37;4.83;;;;;;;-0.18;100.00;102905.66;4972507;28;20411;-80
2023/01/25 04:05:22;;;;;;;10.73;5.57;;;;;;;-0.11;100.00;102907.81;4985267;28;20046;-80
2023/01/25 04:07:48;;;;;;;10.43;5.30;;;;;;;0.06;100.00;102903.59;5001641;28;20066;-79
2023/01/25 04:10:16;;;;;;;11.10;5.90;;;;;;;-0.03;100.00;102906.56;4989862;28;20049;-80
2023/01/25 04:12:43;;;;;;;12.27;5.93;;;;;;;-0.10;100.00;102904.41;4984488;28;20050;-80
2023/01/25 04:15:10;;;;;;;12.27;6.60;;;;;;;-0.05;100.00;102902.97;4989101;28;20438;-80
2023/01/25 04:17:37;;;;;;;12.20;5.77;;;;;;;0.05;100.00;102897.50;5105364;22;20037;-80
2023/01/25 04:20:04;;;;;;;12.40;6.00;;;;;;;0.00;100.00;102896.34;5027047;28;20029;-80
2023/01/25 04:22:30;;;;;;;10.23;5.87;;;;;;;-0.12;100.00;102899.13;4989920;28;20185;-80
2023/01/25 04:24:57;;;;;;;15.20;6.20;;;;;;;-0.22;100.00;102904.59;5031844;28;20041;-80
2023/01/25 04:27:23;;;;;;;10.53;5.40;;;;;;;-0.11;100.00;102895.72;5066448;28;20041;-80
2023/01/25 04:29:50;;;;;;;10.37;5.33;;;;;;;-0.04;100.00;102895.25;5028227;28;20041;-80
2023/01/25 04:32:17;;;;;;;9.67;4.73;;;;;;;-0.15;100.00;102885.06;5045381;28;20041;-80
2023/01/25 04:34:44;;;;;;;11.23;5.30;;;;;;;0.08;100.00;102884.66;5044104;28;20037;-80
2023/01/25 04:37:10;;;;;;;11.70;5.93;;;;;;;0.01;100.00;102879.06;5043988;28;20037;-80
2023/01/25 04:39:37;;;;;;;11.73;6.23;;;;;;;-0.18;100.00;102877.06;5038112;28;20041;-80
2023/01/25 04:42:04;;;;;;;14.70;5.63;;;;;;;-0.16;100.00;102872.88;5056037;28;20053;-80
2023/01/25 04:44:31;;;;;;;11.93;6.23;;;;;;;-0.18;100.00;102869.28;5011641;28;20106;-80
2023/01/25 04:46:57;;;;;;;11.20;6.27;;;;;;;-0.14;100.00;102876.47;5005875;28;20529;-82
2023/01/25 04:49:24;;;;;;;12.33;6.40;;;;;;;-0.14;100.00;102877.34;5016548;28;20556;-81
2023/01/25 04:51:51;;;;;;;12.27;5.40;;;;;;;-0.13;100.00;102879.13;4996875;28;20053;-82
2023/01/25 04:54:17;;;;;;;10.90;5.37;;;;;;;-0.11;100.00;102869.72;5000785;28;20051;-82
2023/01/25 04:56:44;;;;;;;12.83;6.10;;;;;;;-0.07;100.00;102869.13;5014624;28;20033;-82
2023/01/25 04:59:11;;;;;;;12.73;6.67;;;;;;;-0.10;100.00;102862.81;5000319;28;20052;-82
2023/01/25 05:01:38;;;;;;;10.80;5.60;;;;;;;-0.15;100.00;102865.16;5015190;28;20127;-81
2023/01/25 05:04:04;;;;;;;12.10;5.67;;;;;;;-0.19;100.00;102858.00;5012030;28;20077;-82
2023/01/25 05:06:31;;;;;;;11.60;5.80;;;;;;;-0.19;100.00;102854.50;5033293;28;20052;-82
2023/01/25 05:08:58;;;;;;;11.27;5.83;;;;;;;-0.01;100.00;102853.84;5017344;28;20102;-82
2023/01/25 05:11:24;;;;;;;10.90;5.30;;;;;;;-0.11;100.00;102861.94;5014865;28;20612;-81
2023/01/25 05:13:53;;;;;;;10.80;6.27;;;;;;;0.01;100.00;102860.88;5003760;28;20099;-82
2023/01/25 05:16:20;;;;;;;10.70;6.33;;;;;;;0.02;100.00;102865.25;5037357;28;20044;-80
2023/01/25 05:18:46;;;;;;;11.33;6.23;;;;;;;-0.10;100.00;102863.72;5050182;28;20041;-80
2023/01/25 05:24:00;;;;;;;12.53;6.70;;;;;;;-0.04;100.00;102856.28;5008176;28;20457;-80
2023/01/25 05:29:12;;;;;;;13.73;6.77;;;;;;;-0.24;100.00;102862.03;5022509;28;20478;-80
2023/01/25 05:31:39;;;;;;;11.73;6.90;;;;;;;-0.27;100.00;102848.84;4987139;28;20045;-80
2023/01/25 05:34:05;;;;;;;12.87;6.73;;;;;;;-0.23;100.00;102850.84;5018790;28;20076;-81
2023/01/25 05:36:32;;;;;;;16.37;6.33;;;;;;;-0.23;100.00;102852.53;5032719;28;20048;-81
2023/01/25 05:38:59;;;;;;;12.20;6.03;;;;;;;-0.10;100.00;102849.84;5009025;28;20041;-81
2023/01/25 05:41:25;;;;;;;12.90;7.10;;;;;;;-0.13;100.00;102837.56;5002852;28;20067;-79
2023/01/25 05:43:52;;;;;;;11.07;6.77;;;;;;;-0.06;100.00;102829.31;4986440;28;20083;-81
2023/01/25 05:46:19;;;;;;;12.20;6.63;;;;;;;-0.18;100.00;102843.28;5003749;28;20052;-81
2023/01/25 05:48:47;;;;;;;11.70;5.97;;;;;;;-0.25;100.00;102831.69;5020164;28;20037;-81
2023/01/25 05:51:13;;;;;;;11.63;6.07;;;;;;;-0.29;100.00;102830.59;5019088;28;20049;-81
2023/01/25 05:53:40;;;;;;;12.93;6.30;;;;;;;-0.04;100.00;102829.41;5002445;28;20053;-80
2023/01/25 05:56:09;;;;;;;11.37;7.27;;;;;;;-0.12;100.00;102826.38;5019512;28;20045;-81
2023/01/25 05:58:37;;;;;;;12.60;6.10;;;;;;;-0.21;100.00;102822.34;5020205;28;20045;-82
2023/01/25 06:01:05;;;;;;;13.53;7.20;;;;;;;-0.26;100.00;102823.78;5004209;28;20117;-81
2023/01/25 06:03:32;;;;;;;13.10;7.30;;;;;;;-0.29;100.00;102811.50;4992437;28;20048;-80
2023/01/25 06:06:01;;;;;;;13.93;7.13;;;;;;;-0.26;100.00;102813.38;5022732;28;20037;-80
2023/01/25 06:08:31;;;;;;;16.33;7.53;;;;;;;-0.33;100.00;102820.84;5038789;28;20055;-81
2023/01/25 06:10:58;;;;;;;10.73;6.63;;;;;;;-0.26;100.00;102822.06;5016465;28;20095;-80
2023/01/25 06:13:24;;;;;;;12.20;6.20;;;;;;;-0.31;100.00;102819.22;5018862;28;20096;-81
2023/01/25 06:15:55;;;;;;;13.83;8.10;;;;;;;-0.27;100.00;102817.69;5019723;28;20111;-81
2023/01/25 06:18:23;;;;;;;13.57;7.63;;;;;;;-0.36;100.00;102812.84;5018212;28;20073;-80
2023/01/25 06:20:50;;;;;;;15.20;8.77;;;;;;;-0.24;100.00;102814.38;5013496;28;20040;-81
2023/01/25 06:23:17;;;;;;;12.87;7.73;;;;;;;-0.24;100.00;102817.00;5000866;28;20053;-81
2023/01/25 06:25:43;;;;;;;12.77;7.20;;;;;;;-0.34;100.00;102815.53;5024269;28;20261;-80
2023/01/25 06:28:10;;;;;;;13.03;7.23;;;;;;;-0.29;100.00;102804.63;5020228;28;20064;-80
2023/01/25 06:30:37;;;;;;;13.10;7.23;;;;;;;-0.20;100.00;102804.25;4999828;28;20041;-81
2023/01/25 06:33:03;;;;;;;13.57;7.43;;;;;;;-0.25;100.00;102802.19;5018565;28;20099;-81
2023/01/25 06:35:31;;;;;;;13.43;8.13;;;;;;;-0.33;100.00;102802.66;5019273;28;20044;-81
2023/01/25 06:37:59;;;;;;;14.80;8.37;;;;;;;-0.27;100.00;102804.69;4999937;28;20046;-81
2023/01/25 06:40:27;;;;;;;13.80;7.90;;;;;;;-0.35;100.00;102798.16;5017408;28;20045;-80
2023/01/25 06:42:53;;;;;;;15.67;7.50;;;;;;;-0.30;100.00;102796.75;5024343;28;20072;-81
2023/01/25 06:45:20;;;;;;;17.27;7.83;;;;;;;-0.10;100.00;102792.66;5002845;28;20045;-80
2023/01/25 06:47:48;;;;;;;14.40;7.57;;;;;;;-0.16;100.00;102798.44;5017189;28;20092;-80
2023/01/25 06:50:14;;;;;;;14.60;7.73;;;;;;;-0.25;100.00;102799.59;5029098;28;20051;-81
2023/01/25 06:52:41;;;;;;;12.87;7.57;;;;;;;-0.27;100.00;102796.91;5014426;28;20072;-80
2023/01/25 06:55:12;;;;;;;16.67;8.57;;;;;;;-0.26;100.00;102798.69;5007676;28;20069;-80
2023/01/25 06:57:39;;;;;;;15.47;8.17;;;;;;;-0.34;100.00;102799.94;5011371;28;20122;-80
2023/01/25 07:00:06;;;;;;;14.63;6.67;;;;;;;-0.42;100.00;102796.94;4999617;28;20049;-81
2023/01/25 07:02:33;;;;;;;15.47;8.10;;;;;;;-0.42;100.00;102796.94;5031040;28;20038;-81
2023/01/25 07:05:00;;;;;;;14.57;7.90;;;;;;;-0.40;100.00;102792.72;5005031;28;20041;-81
2023/01/25 07:07:26;;;;;;;14.77;7.53;;;;;;;-0.22;100.00;102790.28;5000524;28;20042;-81
2023/01/25 07:09:53;;;;;;;16.87;8.17;;;;;;;-0.20;100.00;102785.16;5033259;28;20213;-81
2023/01/25 07:12:21;;;;;;;14.67;7.07;;;;;;;-0.24;100.00;102788.41;5036046;28;20063;-81
2023/01/25 07:14:48;;;;;;;19.20;8.00;;;;;;;-0.26;100.00;102783.09;5036110;28;20428;-80
2023/01/25 07:17:14;;;;;;;16.10;9.10;;;;;;;-0.27;100.00;102773.53;5003012;28;20049;-81
2023/01/25 07:19:41;;;;;;;20.00;11.03;;;;;;;-0.31;100.00;102771.56;5018380;28;20064;-81
2023/01/25 07:22:08;;;;;;;16.83;9.33;;;;;;;-0.32;100.00;102767.19;5012431;28;20053;-81
2023/01/25 07:24:34;;;;;;;17.50;9.10;;;;;;;-0.34;100.00;102768.78;5015636;28;20041;-81
2023/01/25 07:27:01;;;;;;;16.10;9.23;;;;;;;-0.24;100.00;102765.94;5015793;28;20063;-81
2023/01/25 07:29:29;;;;;;;18.83;10.37;;;;;;;-0.31;100.00;102761.19;5014455;28;20754;-81
2023/01/25 07:31:55;;;;;;;16.17;8.90;;;;;;;-0.33;100.00;102763.69;5002435;28;20532;-81
2023/01/25 07:34:22;;;;;;;18.70;9.00;;;;;;;-0.25;100.00;102774.53;5035310;28;20107;-80
2023/01/25 07:36:48;;;;;;;15.90;7.50;;;;;;;-0.32;100.00;102768.09;5034960;28;20041;-80
2023/01/25 07:39:16;;;;;;;25.00;13.23;;;;;;;-0.19;100.00;102761.88;5035235;28;20125;-79
2023/01/25 07:41:42;;;;;;;23.30;13.40;;;;;;;-0.11;100.00;102760.59;5035311;28;20036;-81
2023/01/25 07:44:09;;;;;;;19.63;11.63;;;;;;;-0.12;100.00;102763.13;5019122;28;20090;-80
2023/01/25 07:46:36;;;;;;;18.93;9.67;;;;;;;-0.09;100.00;102751.19;5014093;28;20060;-80
2023/01/25 07:49:03;;;;;;;17.77;8.43;;;;;;;0.01;100.00;102751.72;5013117;28;20037;-80
2023/01/25 07:51:30;;;;;;;15.03;8.10;;;;;;;-0.10;100.00;102744.19;5011929;28;20399;-78
2023/01/25 07:54:02;;;;;;;19.10;8.60;;;;;;;-0.22;100.00;102740.94;5012668;28;20045;-81
2023/01/25 07:56:34;;;;;;;16.07;8.43;;;;;;;-0.10;100.00;102740.72;5013897;28;20461;-80
2023/01/25 07:59:03;;;;;;;15.60;7.90;;;;;;;-0.14;100.00;102725.78;5027572;28;20065;-80
2023/01/25 08:01:32;;;;;;;19.33;8.73;;;;;;;-0.15;100.00;102724.88;5015952;28;20087;-80
2023/01/25 08:04:00;;;;;;;19.63;11.57;;;;;;;-0.11;100.00;102724.22;5037261;28;20137;-79
2023/01/25 08:06:34;;;;;;;16.17;8.40;;;;;;;-0.02;100.00;102726.44;5038881;28;20064;-80
2023/01/25 08:09:07;;;;;;;15.10;8.13;;;;;;;0.01;100.00;102728.34;5041998;28;20110;-80
2023/01/25 08:11:34;;;;;;;15.23;8.03;;;;;;;0.11;100.00;102730.63;5020994;28;20045;-80
2023/01/25 08:14:01;;;;;;;15.83;7.83;;;;;;;-0.01;100.00;102716.13;5021372;28;20040;-79
2023/01/25 08:16:30;;;;;;;12.37;6.87;;;;;;;-0.09;100.00;102721.72;5039228;28;20053;-80
2023/01/25 08:18:59;;;;;;;14.80;7.63;;;;;;;-0.06;100.00;102722.78;5009667;28;20057;-79
2023/01/25 08:21:29;;;;;;;15.87;8.53;;;;;;;-0.04;100.00;102734.16;4993817;28;20132;-80
2023/01/25 08:24:01;;;;;;;17.10;9.90;;;;;;;0.02;100.00;102714.53;5018277;28;20060;-81
2023/01/25 08:26:27;;;;;;;21.90;11.53;;;;;;;0.01;100.00;102712.75;5010727;28;20099;-79
2023/01/25 08:28:55;;;;;;;16.97;9.80;;;;;;;0.02;100.00;102714.53;5011331;28;20042;-80
2023/01/25 08:31:24;;;;;;;21.27;13.33;;;;;;;0.11;100.00;102705.53;5030446;28;20104;-80
2023/01/25 08:33:51;;;;;;;20.67;13.20;;;;;;;0.34;100.00;102701.59;5034210;28;20046;-80
2023/01/25 08:36:19;;;;;;;23.00;14.23;;;;;;;0.20;100.00;102707.75;4986310;23;20093;-80
2023/01/25 08:38:46;;;;;;;26.57;15.47;;;;;;;0.17;100.00;102702.34;4954984;28;20137;-80
2023/01/25 08:41:18;;;;;;;20.43;12.37;;;;;;;0.13;100.00;102703.00;4972608;28;20047;-80
2023/01/25 08:43:45;;;;;;;22.87;12.73;;;;;;;0.11;100.00;102702.03;4969127;28;20124;-80
2023/01/25 08:46:14;;;;;;;19.40;10.93;;;;;;;0.21;100.00;102705.22;4991841;28;20534;-79
2023/01/25 08:48:40;;;;;;;16.70;9.47;;;;;;;0.18;100.00;102702.47;5006766;28;20034;-80
2023/01/25 08:51:10;;;;;;;14.70;7.87;;;;;;;0.11;100.00;102708.13;5009239;28;20100;-80
2023/01/25 08:53:37;;;;;;;18.17;9.73;;;;;;;0.24;100.00;102701.88;4991314;28;20057;-80
2023/01/25 08:56:05;;;;;;;16.40;8.80;;;;;;;0.43;100.00;102704.69;4966090;28;20057;-80
2023/01/25 08:58:32;;;;;;;18.63;8.53;;;;;;;0.27;100.00;102707.28;4977124;28;20495;-81
2023/01/25 09:01:06;;;;;;;16.50;8.40;;;;;;;0.30;100.00;102704.81;4976720;28;20046;-79
2023/01/25 09:03:35;;;;;;;18.10;9.03;;;;;;;0.22;100.00;102700.91;4986708;28;20048;-79
2023/01/25 09:06:02;;;;;;;13.80;8.27;;;;;;;0.24;100.00;102696.69;4973602;28;20104;-80
2023/01/25 09:08:28;;;;;;;17.03;9.50;;;;;;;0.25;100.00;102695.88;4993372;28;20049;-80
2023/01/25 09:11:02;;;;;;;15.33;9.00;;;;;;;0.25;100.00;102695.88;5009216;28;20479;-80
2023/01/25 09:13:29;;;;;;;17.70;9.88;;;;;;;0.45;100.00;102686.56;4994451;28;20041;-80
2023/01/25 09:16:05;;;;;;;20.27;10.43;;;;;;;0.35;100.00;102679.97;4993429;28;20042;-80
2023/01/25 09:18:32;;;;;;;16.67;9.97;;;;;;;0.36;100.00;102679.16;5013348;28;20100;-79
2023/01/25 09:20:59;;;;;;;14.93;8.67;;;;;;;0.38;100.00;102679.25;4997841;28;20042;-80
2023/01/25 09:23:26;;;;;;;18.10;9.67;;;;;;;0.44;100.00;102677.88;4989515;28;20042;-80
2023/01/25 09:26:00;;;;;;;16.23;9.70;;;;;;;0.33;100.00;102676.38;4989760;28;20043;-81
2023/01/25 09:28:28;;;;;;;;;;;;;;;0.31;100.00;102669.31;4974594;28;20065;-81
2023/01/25 09:30:56;;;;;;;18.97;9.40;;;;;;;0.50;100.00;102665.16;4997755;28;19925;-81
2023/01/25 09:33:43;;;;;;;20.67;10.63;;;;;;;0.48;100.00;102664.19;4981660;28;20851;-80
2023/01/25 09:36:10;;;;;;;18.70;10.40;;;;;;;0.55;100.00;102662.81;4962901;28;20042;-81
2023/01/25 09:38:37;;;;;;;16.93;9.57;;;;;;;0.54;100.00;102663.63;4978555;28;20057;-80
2023/01/25 09:41:04;;;;;;;20.50;8.87;;;;;;;0.63;100.00;102663.22;5014560;28;20039;-80
2023/01/25 09:43:55;;;;;;;16.10;9.53;;;;;;;0.56;100.00;102662.00;5029130;28;20482;-80
2023/01/25 09:46:34;;;;;;;;;;;;;;;0.72;100.00;102663.69;5002075;28;20498;-80
2023/01/25 09:49:03;;;;;;;15.63;8.03;;;;;;;0.70;100.00;102657.53;5002631;28;19943;-80
2023/01/25 09:51:48;;;;;;;19.97;9.77;;;;;;;0.52;100.00;102652.25;4978628;28;20048;-80
2023/01/25 09:54:17;;;;;;;22.33;9.93;;;;;;;0.62;100.00;102651.03;4995989;28;20042;-80
2023/01/25 09:56:47;;;;;;;16.23;9.40;;;;;;;0.54;100.00;102645.44;4980029;28;20042;-80
2023/01/25 09:59:17;;;;;;;17.67;8.63;;;;;;;0.45;100.00;102650.16;4981138;28;20068;-80
2023/01/25 10:01:48;;;;;;;21.60;8.83;;;;;;;0.70;100.00;102644.50;4998139;28;20157;-81
2023/01/25 10:04:21;;;;;;;16.33;8.37;;;;;;;0.64;100.00;102639.00;4996401;28;20121;-81
2023/01/25 10:06:51;;;;;;;17.65;10.30;;;;;;;0.57;100.00;102635.16;4989395;28;20042;-81
2023/01/25 10:09:41;;;;;;;19.50;10.27;;;;;;;0.63;100.00;102637.19;4978372;28;20470;-81
2023/01/25 10:12:15;;;;;;;18.27;9.43;;;;;;;0.53;100.00;102631.53;4976991;28;20727;-81
2023/01/25 10:14:42;;;;;;;18.20;9.38;;;;;;;0.62;100.00;102625.91;4976804;28;20052;-81
2023/01/25 10:17:26;;;;;;;20.10;9.40;;;;;;;0.55;100.00;102618.59;4989395;28;20103;-81
2023/01/25 10:19:52;;;;;;;15.45;9.18;;;;;;;0.49;100.00;102623.47;4993954;28;20049;-81
2023/01/25 10:22:22;;;;;;;16.00;8.47;;;;;;;0.49;100.00;102613.06;5032104;28;20548;-81
2023/01/25 10:25:17;;;;;;;16.87;9.33;;;;;;;0.45;100.00;102613.75;5031878;28;20049;-81
2023/01/25 10:27:44;;;;;;;;;;;;;;;0.45;100.00;102612.03;5001966;28;20445;-81
2023/01/25 10:30:30;;;;;;;16.67;9.50;;;;;;;0.41;100.00;102601.38;5012008;28;19927;-81
2023/01/25 10:33:09;;;;;;;16.73;8.57;;;;;;;0.62;100.00;102599.00;5008914;28;20454;-82
2023/01/25 10:35:37;;;;;;;17.13;9.43;;;;;;;0.61;100.00;102592.91;5008756;28;20113;-82
2023/01/25 10:38:18;;;;;;;16.83;8.88;;;;;;;0.53;100.00;102595.13;4979354;28;20049;-82
2023/01/25 10:40:49;;;;;;;17.90;9.40;;;;;;;0.63;100.00;102588.69;4991217;28;20038;-81
2023/01/25 10:43:20;;;;;;;20.77;9.73;;;;;;;0.65;100.00;102583.53;5004657;28;20630;-81
2023/01/25 10:45:49;;;;;;;18.93;10.23;;;;;;;0.57;100.00;102584.03;4985172;28;20046;-82
2023/01/25 10:48:34;;;;;;;19.37;9.80;;;;;;;0.60;100.00;102566.84;4975429;28;20073;-81
2023/01/25 10:51:01;;;;;;;18.83;10.47;;;;;;;0.54;100.00;102568.28;4989666;28;20038;-81
2023/01/25 10:53:36;;;;;;;17.97;9.40;;;;;;;0.62;100.00;102570.41;4976424;28;20050;-80
2023/01/25 10:56:09;;;;;;;20.23;11.00;;;;;;;0.60;100.00;102572.94;4970550;28;20046;-80
2023/01/25 10:58:38;;;;;;;20.13;9.23;;;;;;;0.61;100.00;102560.81;4994359;28;20494;-80
2023/01/25 11:01:07;;;;;;;19.07;10.10;;;;;;;0.62;100.00;102558.28;4979665;28;20044;-80
2023/01/25 11:03:45;;;;;;;17.80;10.83;;;;;;;0.67;100.00;102550.69;4998563;28;20049;-80
2023/01/25 11:06:12;;;;;;;17.40;9.83;;;;;;;0.66;100.00;102557.59;5012193;28;20049;-80
2023/01/25 11:08:40;;;;;;;19.87;9.97;;;;;;;0.80;100.00;102553.09;4980057;28;20050;-80
2023/01/25 11:11:31;;;;;;;34.60;20.83;;;;;;;0.86;100.00;102539.50;4996461;28;20049;-80
2023/01/25 11:13:58;;;;;;;34.07;18.57;;;;;;;0.87;100.00;102543.91;5008064;28;20096;-80
2023/01/25 11:16:46;;;;;;;26.23;12.60;;;;;;;0.85;100.00;102525.63;4976683;28;20044;-80
2023/01/25 11:19:34;;;;;;;28.50;20.30;;;;;;;0.84;100.00;102531.59;4992281;28;20050;-80
2023/01/25 11:22:04;;;;;;;21.07;13.07;;;;;;;0.84;100.00;102529.00;4982901;28;20084;-79
2023/01/25 11:24:33;;;;;;;21.30;12.03;;;;;;;0.86;100.00;102527.41;4987002;28;20053;-80
2023/01/25 11:27:17;;;;;;;18.77;10.10;;;;;;;1.02;100.00;102516.91;4974893;28;20542;-80